weather.gov     
National Weather Service

Terminal Aerodrome Forecast
NWS Homepage
This page is being discontinued on March 12, 2014.
The same data is available at this site. Please update your bookmarks.
Thank you, and we apologize for the inconvenience.
Please send an email to SR-SRH.Webmaster@noaa.gov with any concerns.


Current Version
Previous Version:    01  02  03  04  05  06  07  08  09  10  11  12  13  14  15  16  17  18  19  20  21  22  23  24  25  26  27  28  29  30  
   31  32  33  34  35  36  37  38  39  40  41  42  43  44  45  46  47  48  49  50  51  52  53  54  55  56  57  
[Printable]
903
FTUS43 KMKX 231120
TAFMKE
TAF
KMKE 231120Z 2312/2418 19007KT P6SM BKN250
     FM231600 17006KT P6SM BKN090
     FM232000 18009KT P6SM -SHRA OVC045
     FM240000 20009KT P6SM VCSH SCT025 OVC035
     FM240300 21005KT P6SM OVC030
     FM240500 VRB03KT P6SM BKN030
     FM240900 VRB03KT 5SM BR SCT035
     FM241400 17006KT P6SM SCT040=


903
FTUS43 KMKX 231120
TAFMKE
TAF
KMKE 231120Z 2312/2418 19007KT P6SM BKN250
     FM231600 17006KT P6SM BKN090
     FM232000 18009KT P6SM -SHRA OVC045
     FM240000 20009KT P6SM VCSH SCT025 OVC035
     FM240300 21005KT P6SM OVC030
     FM240500 VRB03KT P6SM BKN030
     FM240900 VRB03KT 5SM BR SCT035
     FM241400 17006KT P6SM SCT040=




U.S. Dept. of Commerce
NOAA National Weather Service
1325 East West Highway
Silver Spring, MD 20910
E-mail: w-nws.webmaster@noaa.gov
Page last modified: May 16, 2007
NATIONAL WEATHER SERVICE: for Safety, for Work, for Fun - FOR LIFE